sensor_id;sensor_type;location;lat;lon;timestamp;pressure;altitude;pressure_sealevel;temperature;humidity
2397;BME280;1209;48.410;9.054;2024-03-29T00:00:55;94573.38;;;9.28;74.25
2397;BME280;1209;48.410;9.054;2024-03-29T00:03:20;94560.38;;;9.28;73.39
2397;BME280;1209;48.410;9.054;2024-03-29T00:05:46;94552.91;;;9.38;72.89
2397;BME280;1209;48.410;9.054;2024-03-29T00:08:11;94537.25;;;9.38;73.01
2397;BME280;1209;48.410;9.054;2024-03-29T00:10:37;94511.38;;;9.43;71.90
2397;BME280;1209;48.410;9.054;2024-03-29T00:13:02;94519.28;;;9.62;70.09
2397;BME280;1209;48.410;9.054;2024-03-29T00:15:27;94498.28;;;9.57;70.33
2397;BME280;1209;48.410;9.054;2024-03-29T00:17:53;94499.94;;;9.44;71.01
2397;BME280;1209;48.410;9.054;2024-03-29T00:20:18;94497.38;;;9.38;71.97
2397;BME280;1209;48.410;9.054;2024-03-29T00:22:46;94499.41;;;9.36;71.40
2397;BME280;1209;48.410;9.054;2024-03-29T00:25:12;94489.38;;;9.39;72.04
2397;BME280;1209;48.410;9.054;2024-03-29T00:27:37;94464.97;;;9.34;70.61
2397;BME280;1209;48.410;9.054;2024-03-29T00:30:03;94468.69;;;9.44;68.70
2397;BME280;1209;48.410;9.054;2024-03-29T00:32:28;94443.50;;;9.63;66.71
2397;BME280;1209;48.410;9.054;2024-03-29T00:34:53;94443.50;;;9.63;66.76
2397;BME280;1209;48.410;9.054;2024-03-29T00:37:19;94429.38;;;9.53;67.05
2397;BME280;1209;48.410;9.054;2024-03-29T00:39:45;94426.63;;;9.41;68.02
2397;BME280;1209;48.410;9.054;2024-03-29T00:42:10;94417.59;;;9.43;67.43
2397;BME280;1209;48.410;9.054;2024-03-29T00:44:41;94421.97;;;9.50;65.61
2397;BME280;1209;48.410;9.054;2024-03-29T00:47:06;94419.19;;;9.44;66.59
2397;BME280;1209;48.410;9.054;2024-03-29T00:49:32;94414.03;;;9.63;64.57
2397;BME280;1209;48.410;9.054;2024-03-29T00:51:57;94426.22;;;9.69;63.88
2397;BME280;1209;48.410;9.054;2024-03-29T00:54:22;94440.31;;;9.61;64.48
2397;BME280;1209;48.410;9.054;2024-03-29T00:56:51;94429.81;;;9.68;63.85
2397;BME280;1209;48.410;9.054;2024-03-29T00:59:16;94425.03;;;9.65;63.55
2397;BME280;1209;48.410;9.054;2024-03-29T01:01:42;94430.75;;;9.55;63.74
2397;BME280;1209;48.410;9.054;2024-03-29T01:04:08;94437.50;;;9.63;63.64
2397;BME280;1209;48.410;9.054;2024-03-29T01:06:34;94449.59;;;9.75;62.25
2397;BME280;1209;48.410;9.054;2024-03-29T01:09:00;94441.09;;;9.62;61.84
2397;BME280;1209;48.410;9.054;2024-03-29T01:11:26;94428.19;;;9.49;63.28
2397;BME280;1209;48.410;9.054;2024-03-29T01:13:52;94426.19;;;9.51;64.30
2397;BME280;1209;48.410;9.054;2024-03-29T01:16:17;94416.13;;;9.54;63.14
2397;BME280;1209;48.410;9.054;2024-03-29T01:18:42;94422.88;;;9.62;63.10
2397;BME280;1209;48.410;9.054;2024-03-29T01:21:09;94412.81;;;9.65;63.66
2397;BME280;1209;48.410;9.054;2024-03-29T01:23:34;94422.44;;;9.65;62.25
2397;BME280;1209;48.410;9.054;2024-03-29T01:25:59;94418.19;;;9.89;60.71
2397;BME280;1209;48.410;9.054;2024-03-29T01:28:25;94420.00;;;9.88;61.29
2397;BME280;1209;48.410;9.054;2024-03-29T01:30:54;94420.44;;;9.85;62.45
2397;BME280;1209;48.410;9.054;2024-03-29T01:33:21;94421.56;;;9.96;63.92
2397;BME280;1209;48.410;9.054;2024-03-29T01:35:47;94428.47;;;9.84;63.87
2397;BME280;1209;48.410;9.054;2024-03-29T01:38:14;94428.59;;;9.95;62.95
2397;BME280;1209;48.410;9.054;2024-03-29T01:40:39;94422.56;;;9.52;65.58
2397;BME280;1209;48.410;9.054;2024-03-29T01:43:04;94425.50;;;9.30;66.75
2397;BME280;1209;48.410;9.054;2024-03-29T01:45:30;94419.91;;;9.02;69.64
2397;BME280;1209;48.410;9.054;2024-03-29T01:47:56;94419.56;;;9.23;68.65
2397;BME280;1209;48.410;9.054;2024-03-29T01:50:21;94426.47;;;9.11;69.49
2397;BME280;1209;48.410;9.054;2024-03-29T01:52:47;94434.47;;;9.09;71.48
2397;BME280;1209;48.410;9.054;2024-03-29T01:55:13;94431.03;;;9.15;69.13
2397;BME280;1209;48.410;9.054;2024-03-29T01:57:39;94429.13;;;9.29;64.58
2397;BME280;1209;48.410;9.054;2024-03-29T02:00:06;94416.56;;;9.51;63.89
2397;BME280;1209;48.410;9.054;2024-03-29T02:02:32;94415.38;;;9.90;60.54
2397;BME280;1209;48.410;9.054;2024-03-29T02:04:58;94415.41;;;10.08;59.19
2397;BME280;1209;48.410;9.054;2024-03-29T02:07:24;94423.38;;;10.14;58.53
2397;BME280;1209;48.410;9.054;2024-03-29T02:09:50;94409.91;;;10.17;59.30
2397;BME280;1209;48.410;9.054;2024-03-29T02:12:16;94405.75;;;9.91;62.34
2397;BME280;1209;48.410;9.054;2024-03-29T02:14:42;94417.25;;;9.83;63.51
2397;BME280;1209;48.410;9.054;2024-03-29T02:17:08;94417.78;;;9.49;70.91
2397;BME280;1209;48.410;9.054;2024-03-29T02:19:35;94408.66;;;9.08;76.08
2397;BME280;1209;48.410;9.054;2024-03-29T02:22:01;94397.59;;;8.81;79.72
2397;BME280;1209;48.410;9.054;2024-03-29T02:24:30;94412.72;;;8.66;82.02
2397;BME280;1209;48.410;9.054;2024-03-29T02:26:56;94403.66;;;8.24;84.92
2397;BME280;1209;48.410;9.054;2024-03-29T02:29:23;94401.69;;;8.19;85.09
2397;BME280;1209;48.410;9.054;2024-03-29T02:31:48;94399.75;;;7.95;88.23
2397;BME280;1209;48.410;9.054;2024-03-29T02:34:13;94401.75;;;7.86;87.89
2397;BME280;1209;48.410;9.054;2024-03-29T02:36:39;94394.97;;;7.85;89.10
2397;BME280;1209;48.410;9.054;2024-03-29T02:39:04;94402.16;;;7.89;86.78
2397;BME280;1209;48.410;9.054;2024-03-29T02:41:30;94396.38;;;7.81;86.98
2397;BME280;1209;48.410;9.054;2024-03-29T02:43:56;94384.34;;;8.06;83.15
2397;BME280;1209;48.410;9.054;2024-03-29T02:46:22;94374.19;;;7.85;87.21
2397;BME280;1209;48.410;9.054;2024-03-29T02:48:47;94380.19;;;7.85;86.86
2397;BME280;1209;48.410;9.054;2024-03-29T02:51:13;94394.53;;;8.08;84.86
2397;BME280;1209;48.410;9.054;2024-03-29T02:53:38;94397.91;;;8.02;84.25
2397;BME280;1209;48.410;9.054;2024-03-29T02:56:04;94426.09;;;8.11;84.99
2397;BME280;1209;48.410;9.054;2024-03-29T02:58:32;94418.16;;;7.80;87.61
2397;BME280;1209;48.410;9.054;2024-03-29T03:01:05;94433.56;;;7.81;88.42
2397;BME280;1209;48.410;9.054;2024-03-29T03:03:30;94429.53;;;8.05;85.41
2397;BME280;1209;48.410;9.054;2024-03-29T03:05:55;94438.66;;;8.21;82.87
2397;BME280;1209;48.410;9.054;2024-03-29T03:08:21;94459.09;;;8.11;82.38
2397;BME280;1209;48.410;9.054;2024-03-29T03:11:05;94450.25;;;8.25;80.98
2397;BME280;1209;48.410;9.054;2024-03-29T03:13:30;94458.44;;;8.29;81.33
2397;BME280;1209;48.410;9.054;2024-03-29T03:15:56;94465.50;;;8.08;85.10
2397;BME280;1209;48.410;9.054;2024-03-29T03:18:21;94480.72;;;8.05;89.27
2397;BME280;1209;48.410;9.054;2024-03-29T03:20:51;94466.72;;;7.86;92.44
2397;BME280;1209;48.410;9.054;2024-03-29T03:23:16;94478.69;;;8.00;90.28
2397;BME280;1209;48.410;9.054;2024-03-29T03:25:42;94473.50;;;8.00;89.83
2397;BME280;1209;48.410;9.054;2024-03-29T03:28:07;94488.91;;;7.82;91.78
2397;BME280;1209;48.410;9.054;2024-03-29T03:30:32;94485.50;;;8.01;90.88
2397;BME280;1209;48.410;9.054;2024-03-29T03:32:58;94490.28;;;7.98;90.58
2397;BME280;1209;48.410;9.054;2024-03-29T03:35:23;94500.91;;;7.89;92.16
2397;BME280;1209;48.410;9.054;2024-03-29T03:37:48;94482.75;;;7.70;94.20
2397;BME280;1209;48.410;9.054;2024-03-29T03:40:14;94456.75;;;7.50;96.78
2397;BME280;1209;48.410;9.054;2024-03-29T03:42:39;94461.16;;;7.49;96.38
2397;BME280;1209;48.410;9.054;2024-03-29T03:45:06;94465.16;;;7.58;97.78
2397;BME280;1209;48.410;9.054;2024-03-29T03:47:32;94470.34;;;7.39;100.00
2397;BME280;1209;48.410;9.054;2024-03-29T03:49:57;94461.94;;;7.56;100.00
2397;BME280;1209;48.410;9.054;2024-03-29T03:52:22;94467.94;;;7.50;98.99
2397;BME280;1209;48.410;9.054;2024-03-29T03:54:48;94447.38;;;7.42;98.80
2397;BME280;1209;48.410;9.054;2024-03-29T03:57:13;94426.16;;;7.06;100.00
2397;BME280;1209;48.410;9.054;2024-03-29T03:59:38;94417.63;;;7.12;100.00
2397;BME280;1209;48.410;9.054;2024-03-29T04:02:04;94407.03;;;7.40;98.44
2397;BME280;1209;48.410;9.054;2024-03-29T04:04:29;94409.59;;;7.73;92.93
2397;BME280;1209;48.410;9.054;2024-03-29T04:06:54;94398.78;;;7.82;92.73
2397;BME280;1209;48.410;9.054;2024-03-29T04:09:20;94415.53;;;7.93;92.72
2397;BME280;1209;48.410;9.054;2024-03-29T04:11:45;94407.97;;;7.85;93.29
2397;BME280;1209;48.410;9.054;2024-03-29T04:14:10;94409.94;;;7.96;93.85
2397;BME280;1209;48.410;9.054;2024-03-29T04:16:35;94413.78;;;7.54;99.80
2397;BME280;1209;48.410;9.054;2024-03-29T04:19:01;94437.19;;;7.67;100.00
2397;BME280;1209;48.410;9.054;2024-03-29T04:21:26;94440.56;;;7.48;100.00
2397;BME280;1209;48.410;9.054;2024-03-29T04:23:52;94438.78;;;7.48;100.00
2397;BME280;1209;48.410;9.054;2024-03-29T04:26:17;94465.53;;;7.36;100.00
2397;BME280;1209;48.410;9.054;2024-03-29T04:28:42;94440.97;;;7.12;100.00
2397;BME280;1209;48.410;9.054;2024-03-29T04:31:08;94464.53;;;7.17;100.00
2397;BME280;1209;48.410;9.054;2024-03-29T04:33:33;94465.53;;;7.29;100.00
2397;BME280;1209;48.410;9.054;2024-03-29T04:36:01;94453.69;;;6.93;100.00
2397;BME280;1209;48.410;9.054;2024-03-29T04:38:27;94455.94;;;7.10;100.00
2397;BME280;1209;48.410;9.054;2024-03-29T04:40:54;94446.16;;;7.32;100.00
2397;BME280;1209;48.410;9.054;2024-03-29T04:43:22;94448.75;;;7.12;100.00
2397;BME280;1209;48.410;9.054;2024-03-29T04:45:48;94417.81;;;7.23;100.00
2397;BME280;1209;48.410;9.054;2024-03-29T04:48:13;94405.81;;;6.96;100.00
2397;BME280;1209;48.410;9.054;2024-03-29T04:50:39;94389.44;;;6.89;100.00
2397;BME280;1209;48.410;9.054;2024-03-29T04:53:07;94397.06;;;7.17;100.00
2397;BME280;1209;48.410;9.054;2024-03-29T04:55:33;94387.63;;;7.03;100.00
2397;BME280;1209;48.410;9.054;2024-03-29T04:57:58;94379.69;;;7.11;100.00
2397;BME280;1209;48.410;9.054;2024-03-29T05:00:23;94394.25;;;7.38;100.00
2397;BME280;1209;48.410;9.054;2024-03-29T05:02:49;94406.63;;;7.36;100.00
2397;BME280;1209;48.410;9.054;2024-03-29T05:05:14;94411.81;;;7.36;100.00
2397;BME280;1209;48.410;9.054;2024-03-29T05:07:40;94419.59;;;7.36;100.00
2397;BME280;1209;48.410;9.054;2024-03-29T05:10:05;94424.00;;;7.22;100.00
2397;BME280;1209;48.410;9.054;2024-03-29T05:12:37;94426.75;;;7.08;100.00
2397;BME280;1209;48.410;9.054;2024-03-29T05:15:03;94429.56;;;7.00;100.00
2397;BME280;1209;48.410;9.054;2024-03-29T05:17:28;94434.53;;;7.01;100.00
2397;BME280;1209;48.410;9.054;2024-03-29T05:19:54;94432.19;;;7.26;100.00
2397;BME280;1209;48.410;9.054;2024-03-29T05:22:20;94439.56;;;7.29;100.00
2397;BME280;1209;48.410;9.054;2024-03-29T05:24:45;94460.16;;;7.37;100.00
2397;BME280;1209;48.410;9.054;2024-03-29T05:27:14;94459.94;;;7.32;100.00
2397;BME280;1209;48.410;9.054;2024-03-29T05:29:39;94474.13;;;7.30;100.00
2397;BME280;1209;48.410;9.054;2024-03-29T05:32:06;94486.91;;;7.51;100.00
2397;BME280;1209;48.410;9.054;2024-03-29T05:34:31;94487.72;;;7.38;100.00
2397;BME280;1209;48.410;9.054;2024-03-29T05:36:57;94490.50;;;7.43;100.00
2397;BME280;1209;48.410;9.054;2024-03-29T05:39:22;94483.31;;;7.19;100.00
2397;BME280;1209;48.410;9.054;2024-03-29T05:41:47;94472.13;;;7.18;100.00
2397;BME280;1209;48.410;9.054;2024-03-29T05:44:13;94468.34;;;7.21;100.00
2397;BME280;1209;48.410;9.054;2024-03-29T05:46:38;94457.94;;;7.21;100.00
2397;BME280;1209;48.410;9.054;2024-03-29T05:49:05;94469.34;;;7.33;100.00
2397;BME280;1209;48.410;9.054;2024-03-29T05:51:31;94459.75;;;7.40;100.00
2397;BME280;1209;48.410;9.054;2024-03-29T05:53:56;94453.34;;;7.56;100.00
2397;BME280;1209;48.410;9.054;2024-03-29T05:56:21;94452.56;;;7.49;100.00
2397;BME280;1209;48.410;9.054;2024-03-29T05:58:47;94448.16;;;7.76;100.00
2397;BME280;1209;48.410;9.054;2024-03-29T06:01:12;94447.13;;;7.90;100.00
2397;BME280;1209;48.410;9.054;2024-03-29T06:03:38;94450.75;;;7.82;100.00
2397;BME280;1209;48.410;9.054;2024-03-29T06:06:04;94441.75;;;7.85;100.00
2397;BME280;1209;48.410;9.054;2024-03-29T06:08:29;94439.72;;;8.07;100.00
2397;BME280;1209;48.410;9.054;2024-03-29T06:10:54;94440.72;;;7.99;100.00
2397;BME280;1209;48.410;9.054;2024-03-29T06:13:20;94440.50;;;8.07;100.00
2397;BME280;1209;48.410;9.054;2024-03-29T06:16:14;94447.31;;;7.95;100.00
2397;BME280;1209;48.410;9.054;2024-03-29T06:18:59;94441.31;;;8.08;100.00
2397;BME280;1209;48.410;9.054;2024-03-29T06:21:24;94439.66;;;8.33;98.39
2397;BME280;1209;48.410;9.054;2024-03-29T06:23:49;94435.47;;;8.77;91.52
2397;BME280;1209;48.410;9.054;2024-03-29T06:26:15;94419.38;;;9.50;86.46
2397;BME280;1209;48.410;9.054;2024-03-29T06:28:40;94432.09;;;9.83;81.92
2397;BME280;1209;48.410;9.054;2024-03-29T06:31:05;94426.56;;;9.97;81.52
2397;BME280;1209;48.410;9.054;2024-03-29T06:33:31;94434.06;;;9.87;89.93
2397;BME280;1209;48.410;9.054;2024-03-29T06:35:56;94430.81;;;9.17;97.66
2397;BME280;1209;48.410;9.054;2024-03-29T06:38:21;94425.34;;;9.00;99.58
2397;BME280;1209;48.410;9.054;2024-03-29T06:40:46;94423.22;;;8.84;100.00
2397;BME280;1209;48.410;9.054;2024-03-29T06:43:13;94422.59;;;8.89;100.00
2397;BME280;1209;48.410;9.054;2024-03-29T06:45:41;94417.84;;;8.79;100.00
2397;BME280;1209;48.410;9.054;2024-03-29T06:48:09;94416.50;;;8.12;100.00
2397;BME280;1209;48.410;9.054;2024-03-29T06:50:35;94406.31;;;8.04;100.00
2397;BME280;1209;48.410;9.054;2024-03-29T06:53:00;94415.94;;;7.97;100.00
2397;BME280;1209;48.410;9.054;2024-03-29T06:55:26;94420.09;;;8.17;100.00
2397;BME280;1209;48.410;9.054;2024-03-29T06:57:51;94417.31;;;8.06;100.00
2397;BME280;1209;48.410;9.054;2024-03-29T07:00:17;94407.69;;;8.13;100.00
2397;BME280;1209;48.410;9.054;2024-03-29T07:02:42;94396.13;;;8.09;100.00
2397;BME280;1209;48.410;9.054;2024-03-29T07:05:11;94386.75;;;7.88;100.00
2397;BME280;1209;48.410;9.054;2024-03-29T07:07:37;94396.88;;;8.16;100.00
2397;BME280;1209;48.410;9.054;2024-03-29T07:10:03;94402.50;;;8.13;100.00
2397;BME280;1209;48.410;9.054;2024-03-29T07:12:28;94413.72;;;8.07;100.00
2397;BME280;1209;48.410;9.054;2024-03-29T07:14:53;94437.84;;;8.34;100.00
2397;BME280;1209;48.410;9.054;2024-03-29T07:17:19;94435.66;;;8.24;100.00
2397;BME280;1209;48.410;9.054;2024-03-29T07:19:44;94468.25;;;8.27;100.00
2397;BME280;1209;48.410;9.054;2024-03-29T07:22:10;94471.72;;;7.94;100.00
2397;BME280;1209;48.410;9.054;2024-03-29T07:24:36;94469.09;;;7.94;100.00
2397;BME280;1209;48.410;9.054;2024-03-29T07:27:01;94482.50;;;7.98;100.00
2397;BME280;1209;48.410;9.054;2024-03-29T07:29:26;94487.94;;;7.76;100.00
2397;BME280;1209;48.410;9.054;2024-03-29T07:31:52;94490.50;;;8.09;100.00
2397;BME280;1209;48.410;9.054;2024-03-29T07:34:17;94495.69;;;8.03;100.00
2397;BME280;1209;48.410;9.054;2024-03-29T07:36:42;94492.50;;;8.07;100.00
2397;BME280;1209;48.410;9.054;2024-03-29T07:39:08;94496.44;;;8.36;100.00
2397;BME280;1209;48.410;9.054;2024-03-29T07:41:33;94490.06;;;8.26;100.00
2397;BME280;1209;48.410;9.054;2024-03-29T07:43:59;94502.81;;;8.47;100.00
2397;BME280;1209;48.410;9.054;2024-03-29T07:46:31;94505.69;;;8.12;100.00
2397;BME280;1209;48.410;9.054;2024-03-29T07:48:57;94501.09;;;8.01;100.00
2397;BME280;1209;48.410;9.054;2024-03-29T07:51:22;94507.69;;;8.17;100.00
2397;BME280;1209;48.410;9.054;2024-03-29T07:53:48;94499.06;;;8.23;100.00
2397;BME280;1209;48.410;9.054;2024-03-29T07:56:13;94505.47;;;8.34;100.00
2397;BME280;1209;48.410;9.054;2024-03-29T07:58:39;94510.03;;;8.45;100.00
2397;BME280;1209;48.410;9.054;2024-03-29T08:01:04;94517.19;;;8.63;100.00
2397;BME280;1209;48.410;9.054;2024-03-29T08:03:29;94515.56;;;8.68;100.00
2397;BME280;1209;48.410;9.054;2024-03-29T08:06:01;94516.19;;;8.64;100.00
2397;BME280;1209;48.410;9.054;2024-03-29T08:08:30;94518.75;;;8.77;100.00
2397;BME280;1209;48.410;9.054;2024-03-29T08:10:56;94519.06;;;8.94;100.00
2397;BME280;1209;48.410;9.054;2024-03-29T08:13:21;94520.06;;;8.99;100.00
2397;BME280;1209;48.410;9.054;2024-03-29T08:15:47;94517.34;;;9.19;100.00
2397;BME280;1209;48.410;9.054;2024-03-29T08:18:13;94518.47;;;9.30;100.00
2397;BME280;1209;48.410;9.054;2024-03-29T08:20:39;94518.81;;;9.46;100.00
2397;BME280;1209;48.410;9.054;2024-03-29T08:23:04;94526.25;;;9.68;100.00
2397;BME280;1209;48.410;9.054;2024-03-29T08:25:29;94526.03;;;9.69;100.00
2397;BME280;1209;48.410;9.054;2024-03-29T08:27:55;94527.81;;;9.12;100.00
2397;BME280;1209;48.410;9.054;2024-03-29T08:30:25;94536.59;;;9.18;100.00
2397;BME280;1209;48.410;9.054;2024-03-29T08:32:50;94549.06;;;9.48;100.00
2397;BME280;1209;48.410;9.054;2024-03-29T08:35:17;94552.41;;;9.55;100.00
2397;BME280;1209;48.410;9.054;2024-03-29T08:37:43;94533.91;;;9.31;100.00
2397;BME280;1209;48.410;9.054;2024-03-29T08:40:09;94554.00;;;9.56;100.00
2397;BME280;1209;48.410;9.054;2024-03-29T08:42:34;94542.75;;;9.62;100.00
2397;BME280;1209;48.410;9.054;2024-03-29T08:45:02;94556.47;;;9.44;100.00
2397;BME280;1209;48.410;9.054;2024-03-29T08:47:28;94577.59;;;9.92;100.00
2397;BME280;1209;48.410;9.054;2024-03-29T08:49:54;94579.81;;;9.95;100.00
2397;BME280;1209;48.410;9.054;2024-03-29T08:52:19;94573.59;;;9.90;100.00
2397;BME280;1209;48.410;9.054;2024-03-29T08:54:44;94556.75;;;10.17;100.00
2397;BME280;1209;48.410;9.054;2024-03-29T08:57:10;94566.78;;;10.20;100.00
2397;BME280;1209;48.410;9.054;2024-03-29T08:59:35;94565.28;;;10.31;100.00
2397;BME280;1209;48.410;9.054;2024-03-29T09:02:04;94560.66;;;10.08;100.00
2397;BME280;1209;48.410;9.054;2024-03-29T09:04:33;94552.81;;;9.83;100.00
2397;BME280;1209;48.410;9.054;2024-03-29T09:07:02;94554.94;;;9.93;100.00
2397;BME280;1209;48.410;9.054;2024-03-29T09:09:33;94560.78;;;9.88;100.00
2397;BME280;1209;48.410;9.054;2024-03-29T09:11:59;94570.22;;;10.14;100.00
2397;BME280;1209;48.410;9.054;2024-03-29T09:14:24;94572.97;;;10.26;100.00
2397;BME280;1209;48.410;9.054;2024-03-29T09:16:50;94561.44;;;9.84;100.00
2397;BME280;1209;48.410;9.054;2024-03-29T09:19:16;94575.78;;;9.99;100.00
2397;BME280;1209;48.410;9.054;2024-03-29T09:21:42;94581.88;;;10.12;100.00
2397;BME280;1209;48.410;9.054;2024-03-29T09:24:07;94581.00;;;9.93;100.00
2397;BME280;1209;48.410;9.054;2024-03-29T09:26:33;94571.84;;;9.84;100.00
2397;BME280;1209;48.410;9.054;2024-03-29T09:28:58;94571.56;;;9.98;100.00
2397;BME280;1209;48.410;9.054;2024-03-29T09:31:24;94572.44;;;9.86;100.00
2397;BME280;1209;48.410;9.054;2024-03-29T09:33:49;94562.59;;;9.63;100.00
2397;BME280;1209;48.410;9.054;2024-03-29T09:36:21;94569.34;;;9.70;100.00
2397;BME280;1209;48.410;9.054;2024-03-29T09:38:49;94563.72;;;9.73;100.00
2397;BME280;1209;48.410;9.054;2024-03-29T09:41:16;94557.59;;;9.86;100.00
2397;BME280;1209;48.410;9.054;2024-03-29T09:43:43;94552.75;;;9.90;100.00
2397;BME280;1209;48.410;9.054;2024-03-29T09:46:15;94537.44;;;10.25;100.00
2397;BME280;1209;48.410;9.054;2024-03-29T09:48:42;94532.66;;;10.22;100.00
2397;BME280;1209;48.410;9.054;2024-03-29T09:51:09;94533.91;;;10.37;100.00
2397;BME280;1209;48.410;9.054;2024-03-29T09:53:36;94538.44;;;10.67;100.00
2397;BME280;1209;48.410;9.054;2024-03-29T09:56:03;94535.47;;;10.82;100.00
2397;BME280;1209;48.410;9.054;2024-03-29T09:58:30;94525.75;;;10.89;100.00
2397;BME280;1209;48.410;9.054;2024-03-29T10:00:56;94521.25;;;10.96;100.00
2397;BME280;1209;48.410;9.054;2024-03-29T10:03:24;94522.94;;;10.90;100.00
2397;BME280;1209;48.410;9.054;2024-03-29T10:05:56;94522.19;;;11.01;100.00
2397;BME280;1209;48.410;9.054;2024-03-29T10:08:27;94518.41;;;11.27;100.00
2397;BME280;1209;48.410;9.054;2024-03-29T10:10:56;94514.09;;;11.21;100.00
2397;BME280;1209;48.410;9.054;2024-03-29T10:13:22;94505.63;;;11.38;100.00
2397;BME280;1209;48.410;9.054;2024-03-29T10:15:54;94490.59;;;11.33;100.00
2397;BME280;1209;48.410;9.054;2024-03-29T10:18:23;94500.19;;;11.39;100.00
2397;BME280;1209;48.410;9.054;2024-03-29T10:21:07;94495.03;;;11.32;100.00
2397;BME280;1209;48.410;9.054;2024-03-29T10:23:34;94487.56;;;11.36;100.00
2397;BME280;1209;48.410;9.054;2024-03-29T10:26:02;94495.47;;;11.71;100.00
2397;BME280;1209;48.410;9.054;2024-03-29T10:28:33;94500.94;;;11.70;100.00
2397;BME280;1209;48.410;9.054;2024-03-29T10:31:01;94486.31;;;11.80;100.00
2397;BME280;1209;48.410;9.054;2024-03-29T10:33:29;94494.63;;;11.89;100.00
2397;BME280;1209;48.410;9.054;2024-03-29T10:35:59;94500.66;;;12.13;100.00
2397;BME280;1209;48.410;9.054;2024-03-29T10:38:26;94494.97;;;12.39;100.00
2397;BME280;1209;48.410;9.054;2024-03-29T10:40:52;94506.13;;;12.46;100.00
2397;BME280;1209;48.410;9.054;2024-03-29T10:43:18;94508.28;;;12.49;100.00
2397;BME280;1209;48.410;9.054;2024-03-29T10:45:44;94500.56;;;12.95;100.00
2397;BME280;1209;48.410;9.054;2024-03-29T10:48:11;94498.44;;;12.68;100.00
2397;BME280;1209;48.410;9.054;2024-03-29T10:50:41;94487.81;;;12.46;100.00
2397;BME280;1209;48.410;9.054;2024-03-29T10:53:08;94484.66;;;12.84;100.00
2397;BME280;1209;48.410;9.054;2024-03-29T10:55:34;94488.03;;;12.97;100.00
2397;BME280;1209;48.410;9.054;2024-03-29T10:58:04;94480.69;;;13.10;100.00
2397;BME280;1209;48.410;9.054;2024-03-29T11:00:33;94472.78;;;13.50;100.00
2397;BME280;1209;48.410;9.054;2024-03-29T11:03:32;94482.03;;;13.86;100.00
2397;BME280;1209;48.410;9.054;2024-03-29T11:06:05;94478.69;;;13.74;100.00
2397;BME280;1209;48.410;9.054;2024-03-29T11:08:34;94474.34;;;13.35;100.00
2397;BME280;1209;48.410;9.054;2024-03-29T11:11:04;94467.22;;;13.64;100.00
2397;BME280;1209;48.410;9.054;2024-03-29T11:13:35;94483.53;;;14.16;100.00
2397;BME280;1209;48.410;9.054;2024-03-29T11:16:03;94488.31;;;14.74;100.00
2397;BME280;1209;48.410;9.054;2024-03-29T11:18:29;94482.91;;;14.09;100.00
2397;BME280;1209;48.410;9.054;2024-03-29T11:20:57;94493.81;;;14.01;100.00
2397;BME280;1209;48.410;9.054;2024-03-29T11:23:25;94499.13;;;14.06;100.00
2397;BME280;1209;48.410;9.054;2024-03-29T11:25:52;94505.81;;;13.97;100.00
2397;BME280;1209;48.410;9.054;2024-03-29T11:28:31;94508.88;;;13.60;100.00
2397;BME280;1209;48.410;9.054;2024-03-29T11:31:07;94515.44;;;13.74;100.00
2397;BME280;1209;48.410;9.054;2024-03-29T11:33:44;94515.44;;;14.08;100.00
2397;BME280;1209;48.410;9.054;2024-03-29T11:38:41;94505.53;;;15.09;100.00
2397;BME280;1209;48.410;9.054;2024-03-29T11:41:14;94501.28;;;15.57;93.84
2397;BME280;1209;48.410;9.054;2024-03-29T11:43:40;94503.50;;;15.92;91.38
2397;BME280;1209;48.410;9.054;2024-03-29T11:46:08;94501.19;;;15.20;94.36
2397;BME280;1209;48.410;9.054;2024-03-29T11:48:35;94508.41;;;15.56;95.37
2397;BME280;1209;48.410;9.054;2024-03-29T11:51:01;94507.41;;;16.21;93.80
2397;BME280;1209;48.410;9.054;2024-03-29T11:53:28;94513.88;;;16.41;89.26
2397;BME280;1209;48.410;9.054;2024-03-29T11:55:56;94511.91;;;17.10;80.63
2397;BME280;1209;48.410;9.054;2024-03-29T11:58:25;94513.97;;;16.56;85.18
2397;BME280;1209;48.410;9.054;2024-03-29T12:00:52;94518.63;;;16.86;82.50
2397;BME280;1209;48.410;9.054;2024-03-29T12:03:19;94512.44;;;17.17;78.89
2397;BME280;1209;48.410;9.054;2024-03-29T12:05:46;94518.63;;;16.44;83.23
2397;BME280;1209;48.410;9.054;2024-03-29T12:08:13;94521.00;;;16.87;81.14
2397;BME280;1209;48.410;9.054;2024-03-29T12:10:39;94510.84;;;17.11;80.67
2397;BME280;1209;48.410;9.054;2024-03-29T12:13:05;94516.72;;;17.34;76.45
2397;BME280;1209;48.410;9.054;2024-03-29T12:15:31;94497.19;;;17.40;77.57
2397;BME280;1209;48.410;9.054;2024-03-29T12:18:01;94502.84;;;16.91;75.47
2397;BME280;1209;48.410;9.054;2024-03-29T12:20:35;94496.78;;;16.95;75.53
2397;BME280;1209;48.410;9.054;2024-03-29T12:23:04;94507.19;;;16.28;80.30
2397;BME280;1209;48.410;9.054;2024-03-29T12:25:30;94497.53;;;15.69;83.27
2397;BME280;1209;48.410;9.054;2024-03-29T12:27:58;94510.31;;;16.20;84.30
2397;BME280;1209;48.410;9.054;2024-03-29T12:30:23;94513.06;;;16.03;85.66
2397;BME280;1209;48.410;9.054;2024-03-29T12:33:00;94518.53;;;15.96;85.20
2397;BME280;1209;48.410;9.054;2024-03-29T12:35:27;94526.38;;;16.18;84.56
2397;BME280;1209;48.410;9.054;2024-03-29T12:37:52;94515.03;;;15.86;88.93
2397;BME280;1209;48.410;9.054;2024-03-29T12:40:19;94512.81;;;15.72;85.09
2397;BME280;1209;48.410;9.054;2024-03-29T12:42:51;94508.25;;;15.95;83.43
2397;BME280;1209;48.410;9.054;2024-03-29T12:45:20;94499.38;;;16.43;86.52
2397;BME280;1209;48.410;9.054;2024-03-29T12:47:46;94497.16;;;16.25;83.25
2397;BME280;1209;48.410;9.054;2024-03-29T12:50:14;94502.31;;;16.94;82.54
2397;BME280;1209;48.410;9.054;2024-03-29T12:52:44;94507.97;;;17.18;84.78
2397;BME280;1209;48.410;9.054;2024-03-29T12:55:10;94512.78;;;17.46;87.25
2397;BME280;1209;48.410;9.054;2024-03-29T12:57:37;94513.41;;;17.84;85.66
2397;BME280;1209;48.410;9.054;2024-03-29T13:00:04;94510.00;;;18.14;82.98
2397;BME280;1209;48.410;9.054;2024-03-29T13:02:35;94513.69;;;18.23;79.18
2397;BME280;1209;48.410;9.054;2024-03-29T13:05:01;94522.13;;;18.55;78.10
2397;BME280;1209;48.410;9.054;2024-03-29T13:07:27;94525.31;;;18.37;81.92
2397;BME280;1209;48.410;9.054;2024-03-29T13:09:52;94528.47;;;17.93;81.99
2397;BME280;1209;48.410;9.054;2024-03-29T13:12:18;94527.19;;;19.37;73.92
2397;BME280;1209;48.410;9.054;2024-03-29T13:14:43;94509.16;;;19.49;73.12
2397;BME280;1209;48.410;9.054;2024-03-29T13:17:09;94512.19;;;19.22;75.36
2397;BME280;1209;48.410;9.054;2024-03-29T13:19:34;94508.03;;;19.06;77.05
2397;BME280;1209;48.410;9.054;2024-03-29T13:22:00;94503.84;;;19.98;67.68
2397;BME280;1209;48.410;9.054;2024-03-29T13:24:25;94501.88;;;19.21;68.82